Time;durP1;ratioP1;P1;durP2;ratioP2;P2;SDS_P1;SDS_P2;PMS_P1;PMS_P2;Temp;Humidity;BMP_temperature;BMP_pressure;BME280_temperature;BME280_humidity;BME280_pressure;Samples;Min_cycle;Max_cycle;Signal;HPM_P1;HPM_P2
2021/12/03 00:00:27;;;;;;;;;;;1.00;99.90;;;;;;5011166;28;19952;-85
2021/12/03 00:02:53;;;;;;;;;;;1.00;99.90;;;;;;4997229;28;20351;-85
2021/12/03 00:05:19;;;;;;;;;;;0.90;99.90;;;;;;5015583;28;19944;-85
2021/12/03 00:07:44;;;;;;;;;;;0.90;99.90;;;;;;4999324;28;19996;-86
2021/12/03 00:10:12;;;;;;;;;;;0.90;99.90;;;;;;5005790;28;19996;-87
2021/12/03 00:12:38;;;;;;;;;;;0.90;99.90;;;;;;5027182;28;20006;-87
2021/12/03 00:15:05;;;;;;;;;;;1.00;99.90;;;;;;5011446;28;19994;-86
2021/12/03 00:17:30;;;;;;;;;;;1.00;99.90;;;;;;5015124;28;20310;-86
2021/12/03 00:19:56;;;;;;;;;;;1.00;99.90;;;;;;4996910;28;19949;-87
2021/12/03 00:22:22;;;;;;;;;;;1.00;99.90;;;;;;4986795;28;20294;-84
2021/12/03 00:24:47;;;;;;;;;;;0.90;99.90;;;;;;4996428;28;19913;-86
2021/12/03 00:27:13;;;;;;;;;;;0.90;99.90;;;;;;4979058;28;19916;-86
2021/12/03 00:29:39;;;;;;;;;;;1.00;99.90;;;;;;5014240;28;19913;-87
2021/12/03 00:32:04;;;;;;;;;;;1.00;99.90;;;;;;5005745;28;19924;-87
2021/12/03 00:34:30;;;;;;;;;;;1.00;99.90;;;;;;4996049;28;19909;-87
2021/12/03 00:36:56;;;;;;;;;;;1.00;99.90;;;;;;4977364;28;19923;-87
2021/12/03 00:39:22;;;;;;;;;;;1.00;99.90;;;;;;5001431;28;19928;-87
2021/12/03 00:41:52;;;;;;;;;;;1.00;99.90;;;;;;5027905;28;19909;-85
2021/12/03 00:44:22;;;;;;;;;;;1.00;99.90;;;;;;5011516;28;19948;-86
2021/12/03 00:46:48;;;;;;;;;;;1.00;99.90;;;;;;5031548;28;19909;-86
2021/12/03 00:49:14;;;;;;;;;;;1.00;99.90;;;;;;5014402;28;20393;-87
2021/12/03 00:51:39;;;;;;;;;;;1.00;99.90;;;;;;4998497;28;20011;-87
2021/12/03 00:54:05;;;;;;;;;;;1.00;99.90;;;;;;4995924;28;20398;-87
2021/12/03 00:56:30;;;;;;;;;;;1.00;99.90;;;;;;4976222;28;19967;-87
2021/12/03 00:58:56;;;;;;;;;;;0.90;99.90;;;;;;4995765;28;20038;-86
2021/12/03 01:01:22;;;;;;;;;;;1.00;99.90;;;;;;5009547;28;19913;-87
2021/12/03 01:03:47;;;;;;;;;;;1.00;99.90;;;;;;4993719;28;20596;-87
2021/12/03 01:06:13;;;;;;;;;;;1.00;99.90;;;;;;4994331;28;19911;-86
2021/12/03 01:08:39;;;;;;;;;;;0.90;99.90;;;;;;5014049;28;19923;-87
2021/12/03 01:11:06;;;;;;;;;;;1.00;99.90;;;;;;5021826;28;20370;-85
2021/12/03 01:13:31;;;;;;;;;;;1.00;99.90;;;;;;4989673;28;19912;-87
2021/12/03 01:15:57;;;;;;;;;;;1.00;99.90;;;;;;5002130;28;19973;-87
2021/12/03 01:18:23;;;;;;;;;;;1.00;99.90;;;;;;4994195;28;19910;-85
2021/12/03 01:20:49;;;;;;;;;;;1.00;99.90;;;;;;4994780;28;20113;-87
2021/12/03 01:23:14;;;;;;;;;;;1.00;99.90;;;;;;4996767;28;19905;-87
2021/12/03 01:25:40;;;;;;;;;;;1.00;99.90;;;;;;5013527;28;19909;-87
2021/12/03 01:28:06;;;;;;;;;;;1.00;99.90;;;;;;4980473;28;19924;-87
2021/12/03 01:30:32;;;;;;;;;;;1.00;99.90;;;;;;4994363;28;19909;-86
2021/12/03 01:32:59;;;;;;;;;;;1.00;99.90;;;;;;5011313;28;19917;-87
2021/12/03 01:35:26;;;;;;;;;;;1.00;99.90;;;;;;5008154;28;19913;-85
2021/12/03 01:37:55;;;;;;;;;;;0.90;99.90;;;;;;4995953;28;19916;-87
2021/12/03 01:40:23;;;;;;;;;;;0.90;99.90;;;;;;5013623;28;19909;-86
2021/12/03 01:42:49;;;;;;;;;;;0.80;99.90;;;;;;4997367;28;19909;-87
2021/12/03 01:45:17;;;;;;;;;;;0.80;99.90;;;;;;4994046;28;20000;-87
2021/12/03 01:47:43;;;;;;;;;;;0.80;99.90;;;;;;5010191;28;19913;-87
2021/12/03 01:50:10;;;;;;;;;;;0.80;99.90;;;;;;4998682;28;20367;-88
2021/12/03 01:52:36;;;;;;;;;;;0.70;99.90;;;;;;4997301;28;19909;-86
2021/12/03 01:55:03;;;;;;;;;;;0.70;99.90;;;;;;5005179;28;19924;-86
2021/12/03 01:57:29;;;;;;;;;;;0.60;99.90;;;;;;4996721;28;19909;-87
2021/12/03 01:59:54;;;;;;;;;;;0.60;99.90;;;;;;4991351;28;20359;-85
2021/12/03 02:02:20;;;;;;;;;;;0.60;99.90;;;;;;5001210;28;20449;-84
2021/12/03 02:04:46;;;;;;;;;;;0.60;99.90;;;;;;5012233;28;19908;-87
2021/12/03 02:07:12;;;;;;;;;;;0.50;99.90;;;;;;5012766;28;19905;-87
2021/12/03 02:09:37;;;;;;;;;;;0.50;99.90;;;;;;4996899;28;19909;-86
2021/12/03 02:12:03;;;;;;;;;;;0.40;99.90;;;;;;4987311;28;20367;-86
2021/12/03 02:14:29;;;;;;;;;;;0.40;99.90;;;;;;4995158;28;19964;-85
2021/12/03 02:16:54;;;;;;;;;;;0.40;99.90;;;;;;4994318;28;20054;-87
2021/12/03 02:19:20;;;;;;;;;;;0.30;99.90;;;;;;4993633;28;19957;-87
2021/12/03 02:21:46;;;;;;;;;;;0.30;99.90;;;;;;5005134;28;19913;-86
2021/12/03 02:24:12;;;;;;;;;;;0.30;99.90;;;;;;4993674;28;19920;-86
2021/12/03 02:26:39;;;;;;;;;;;0.20;99.90;;;;;;5013008;28;20394;-85
2021/12/03 02:29:04;;;;;;;;;;;0.20;99.90;;;;;;4993927;28;19909;-87
2021/12/03 02:31:30;;;;;;;;;;;0.20;99.90;;;;;;5000844;28;19909;-87
2021/12/03 02:33:56;;;;;;;;;;;0.20;99.90;;;;;;4995393;28;19917;-86
2021/12/03 02:36:21;;;;;;;;;;;0.20;99.90;;;;;;5012685;28;19913;-85
2021/12/03 02:38:47;;;;;;;;;;;0.10;99.90;;;;;;5013001;28;19909;-88
2021/12/03 02:41:13;;;;;;;;;;;0.00;99.90;;;;;;4996833;28;19916;-87
2021/12/03 02:43:39;;;;;;;;;;;0.00;99.90;;;;;;4995837;28;19920;-86
2021/12/03 02:46:04;;;;;;;;;;;-0.10;99.90;;;;;;5012647;28;19909;-86
2021/12/03 02:48:31;;;;;;;;;;;-0.10;99.90;;;;;;5016163;28;19909;-86
2021/12/03 02:50:58;;;;;;;;;;;-0.10;99.90;;;;;;4999379;28;20344;-84
2021/12/03 02:53:23;;;;;;;;;;;-0.10;99.90;;;;;;4997507;28;20348;-86
2021/12/03 02:55:49;;;;;;;;;;;-0.20;99.90;;;;;;4999315;28;19940;-87
2021/12/03 02:58:15;;;;;;;;;;;-0.20;99.90;;;;;;5033286;28;19955;-86
2021/12/03 03:00:41;;;;;;;;;;;-0.20;99.90;;;;;;5017001;28;19905;-86
2021/12/03 03:03:07;;;;;;;;;;;-0.30;99.90;;;;;;5001042;28;19970;-86
2021/12/03 03:05:33;;;;;;;;;;;-0.30;99.90;;;;;;4999921;28;20363;-87
2021/12/03 03:07:58;;;;;;;;;;;-0.30;99.90;;;;;;5000510;28;19945;-85
2021/12/03 03:10:28;;;;;;;;;;;-0.40;99.90;;;;;;5000372;28;19913;-87
2021/12/03 03:12:55;;;;;;;;;;;-0.40;99.90;;;;;;4998471;28;19909;-87
2021/12/03 03:15:20;;;;;;;;;;;-0.50;99.90;;;;;;5015242;28;19913;-87
2021/12/03 03:17:46;;;;;;;;;;;-0.50;99.90;;;;;;5016523;28;19916;-87
2021/12/03 03:20:12;;;;;;;;;;;-0.50;99.90;;;;;;5000328;28;19909;-87
2021/12/03 03:22:39;;;;;;;;;;;-0.50;99.90;;;;;;4999143;28;19909;-87
2021/12/03 03:25:05;;;;;;;;;;;-0.50;99.90;;;;;;5019335;28;19909;-87
2021/12/03 03:27:31;;;;;;;;;;;-0.50;99.90;;;;;;4996647;28;20437;-85
2021/12/03 03:29:57;;;;;;;;;;;-0.40;99.90;;;;;;5004691;28;19917;-87
2021/12/03 03:32:23;;;;;;;;;;;-0.40;99.90;;;;;;5004260;28;19916;-87
2021/12/03 03:34:49;;;;;;;;;;;-0.40;99.90;;;;;;4998745;28;19959;-86
2021/12/03 03:37:15;;;;;;;;;;;-0.50;99.90;;;;;;5032481;28;19956;-87
2021/12/03 03:39:42;;;;;;;;;;;-0.50;99.90;;;;;;4996608;28;20438;-88
2021/12/03 03:42:07;;;;;;;;;;;-0.60;99.90;;;;;;5016167;28;19909;-87
2021/12/03 03:44:33;;;;;;;;;;;-0.60;99.90;;;;;;5014961;28;19919;-87
2021/12/03 03:47:00;;;;;;;;;;;-0.70;99.90;;;;;;4999424;28;19995;-87
2021/12/03 03:49:26;;;;;;;;;;;-0.70;99.90;;;;;;4999734;28;19909;-85
2021/12/03 03:51:53;;;;;;;;;;;-0.80;99.90;;;;;;5016053;28;20303;-85
2021/12/03 03:54:19;;;;;;;;;;;-0.90;99.90;;;;;;4999050;28;19981;-86
2021/12/03 03:56:45;;;;;;;;;;;-0.90;99.90;;;;;;4999661;28;20377;-84
2021/12/03 03:59:11;;;;;;;;;;;-1.00;99.90;;;;;;4999148;28;19948;-87
2021/12/03 04:01:36;;;;;;;;;;;-1.00;99.90;;;;;;5032775;28;19979;-85
2021/12/03 04:04:02;;;;;;;;;;;-1.10;99.90;;;;;;5030804;28;19956;-87
2021/12/03 04:06:28;;;;;;;;;;;-1.10;99.90;;;;;;5001176;28;20386;-87
2021/12/03 04:08:54;;;;;;;;;;;-1.10;99.90;;;;;;4999155;28;19940;-87
2021/12/03 04:11:21;;;;;;;;;;;-1.10;99.90;;;;;;5012288;28;19913;-87
2021/12/03 04:13:47;;;;;;;;;;;-1.10;99.90;;;;;;4995548;28;20389;-87
2021/12/03 04:16:12;;;;;;;;;;;-1.10;99.90;;;;;;4998589;28;19917;-87
2021/12/03 04:18:38;;;;;;;;;;;-1.10;99.90;;;;;;4999146;28;19913;-87
2021/12/03 04:21:04;;;;;;;;;;;-1.10;99.90;;;;;;4998823;28;19909;-87
2021/12/03 04:23:30;;;;;;;;;;;-1.10;99.90;;;;;;4998863;28;19909;-87
2021/12/03 04:25:56;;;;;;;;;;;-1.00;99.90;;;;;;5015173;28;19963;-87
2021/12/03 04:28:22;;;;;;;;;;;-1.00;99.90;;;;;;5012762;28;19909;-85
2021/12/03 04:30:47;;;;;;;;;;;-0.90;99.90;;;;;;4998931;28;19917;-87
2021/12/03 04:33:13;;;;;;;;;;;-0.90;99.90;;;;;;4999458;28;19909;-87
2021/12/03 04:35:39;;;;;;;;;;;-0.90;99.90;;;;;;5010295;28;20359;-87
2021/12/03 04:38:05;;;;;;;;;;;-0.90;99.90;;;;;;5015325;28;19936;-87
2021/12/03 04:40:31;;;;;;;;;;;-0.80;99.90;;;;;;4995612;28;19909;-87
2021/12/03 04:42:57;;;;;;;;;;;-0.80;99.90;;;;;;4998078;28;20377;-87
2021/12/03 04:45:23;;;;;;;;;;;-0.80;99.90;;;;;;4998685;28;20012;-87
2021/12/03 04:47:50;;;;;;;;;;;-0.80;99.90;;;;;;4998760;28;19909;-87
2021/12/03 04:50:15;;;;;;;;;;;-0.80;99.90;;;;;;5044098;23;19921;-78
2021/12/03 04:52:41;;;;;;;;;;;-0.90;99.90;;;;;;5027454;28;19967;-78
2021/12/03 04:55:07;;;;;;;;;;;-0.90;99.90;;;;;;5038350;28;20281;-78
2021/12/03 04:57:33;;;;;;;;;;;-0.90;99.90;;;;;;5040595;28;19913;-79
2021/12/03 04:59:59;;;;;;;;;;;-1.00;99.90;;;;;;5037825;28;20339;-79
2021/12/03 05:02:26;;;;;;;;;;;-1.00;99.90;;;;;;5038570;28;19917;-79
2021/12/03 05:04:54;;;;;;;;;;;-1.00;99.90;;;;;;5039440;28;19920;-79
2021/12/03 05:07:53;;;;;;;;;;;-1.10;99.90;;;;;;5039024;28;19913;-78
2021/12/03 05:10:17;;;;;;;;;;;-1.10;99.90;;;;;;5026616;28;19913;-79
2021/12/03 05:12:43;;;;;;;;;;;-1.10;99.90;;;;;;5008677;28;19928;-79
2021/12/03 05:15:09;;;;;;;;;;;-1.20;99.90;;;;;;5029993;28;19936;-79
2021/12/03 05:17:35;;;;;;;;;;;-1.30;99.90;;;;;;5042707;28;19915;-79
2021/12/03 05:20:01;;;;;;;;;;;-1.30;99.90;;;;;;5025424;28;20592;-79
2021/12/03 05:22:26;;;;;;;;;;;-1.30;99.90;;;;;;5042626;28;19921;-79
2021/12/03 05:24:52;;;;;;;;;;;-1.40;99.90;;;;;;5043746;28;19947;-79
2021/12/03 05:27:18;;;;;;;;;;;-1.40;99.90;;;;;;5009886;28;19909;-79
2021/12/03 05:29:44;;;;;;;;;;;-1.40;99.90;;;;;;5024738;28;19967;-78
2021/12/03 05:32:10;;;;;;;;;;;-1.40;99.90;;;;;;5020409;28;19992;-79
2021/12/03 05:34:36;;;;;;;;;;;-1.30;99.90;;;;;;5044003;28;19919;-79
2021/12/03 05:37:02;;;;;;;;;;;-1.30;99.90;;;;;;5039699;28;19967;-79
2021/12/03 05:39:27;;;;;;;;;;;-1.30;99.90;;;;;;5020115;28;20032;-79
2021/12/03 05:41:53;;;;;;;;;;;-1.30;99.90;;;;;;5036202;28;20071;-80
2021/12/03 05:44:19;;;;;;;;;;;-1.30;99.90;;;;;;5038433;28;19981;-79
2021/12/03 05:46:44;;;;;;;;;;;-1.30;99.90;;;;;;5017447;28;19975;-79
2021/12/03 05:49:11;;;;;;;;;;;-1.30;99.90;;;;;;5021593;28;19959;-78
2021/12/03 05:51:37;;;;;;;;;;;-1.20;99.90;;;;;;5033319;28;19913;-79
2021/12/03 05:54:03;;;;;;;;;;;-1.20;99.90;;;;;;5038111;28;19916;-79
2021/12/03 05:56:28;;;;;;;;;;;-1.20;99.90;;;;;;5019967;28;19909;-79
2021/12/03 05:58:54;;;;;;;;;;;-1.10;99.90;;;;;;5037274;28;19917;-79
2021/12/03 06:01:19;;;;;;;;;;;-1.10;99.90;;;;;;5018904;28;19936;-79
2021/12/03 06:03:46;;;;;;;;;;;-1.00;99.90;;;;;;5037838;23;20389;-77
2021/12/03 06:06:12;;;;;;;;;;;-1.10;99.90;;;;;;5030166;28;19913;-78
2021/12/03 06:08:38;;;;;;;;;;;-1.10;99.90;;;;;;5033755;28;20028;-78
2021/12/03 06:11:03;;;;;;;;;;;-1.00;99.90;;;;;;5036712;28;19963;-76
2021/12/03 06:13:29;;;;;;;;;;;-1.00;99.90;;;;;;5021262;28;19913;-77
2021/12/03 06:15:54;;;;;;;;;;;-1.00;99.90;;;;;;5036916;28;19917;-76
2021/12/03 06:18:20;;;;;;;;;;;-1.10;99.90;;;;;;5011347;28;20317;-76
2021/12/03 06:20:46;;;;;;;;;;;-1.00;99.90;;;;;;5016180;28;19920;-76
2021/12/03 06:23:11;;;;;;;;;;;-1.00;99.90;;;;;;5017797;28;20011;-76
2021/12/03 06:25:37;;;;;;;;;;;-0.90;99.90;;;;;;5010624;28;19913;-77
2021/12/03 06:28:03;;;;;;;;;;;-0.90;99.90;;;;;;5025078;28;20387;-76
2021/12/03 06:30:29;;;;;;;;;;;-0.90;99.90;;;;;;5011772;28;19955;-77
2021/12/03 06:32:55;;;;;;;;;;;-0.80;99.90;;;;;;5031648;28;19947;-77
2021/12/03 06:35:20;;;;;;;;;;;-0.70;99.90;;;;;;5031468;28;19917;-78
2021/12/03 06:37:46;;;;;;;;;;;-0.80;99.90;;;;;;5007546;28;20370;-78
2021/12/03 06:40:15;;;;;;;;;;;-0.70;99.90;;;;;;5010525;28;19914;-78
2021/12/03 06:42:41;;;;;;;;;;;-0.70;99.90;;;;;;5009111;28;19967;-77
2021/12/03 06:45:07;;;;;;;;;;;-0.70;99.90;;;;;;5011744;28;20383;-76
2021/12/03 06:47:33;;;;;;;;;;;-0.70;99.90;;;;;;5008245;28;19932;-78
2021/12/03 06:49:59;;;;;;;;;;;-0.60;99.90;;;;;;5012500;28;20015;-77
2021/12/03 06:52:25;;;;;;;;;;;-0.60;99.90;;;;;;5014102;28;20350;-78
2021/12/03 06:54:56;;;;;;;;;;;-0.60;99.90;;;;;;5015724;28;19915;-77
2021/12/03 06:57:22;;;;;;;;;;;-0.50;99.90;;;;;;5010431;28;19925;-78
2021/12/03 06:59:47;;;;;;;;;;;-0.50;99.90;;;;;;4989274;28;19985;-78
2021/12/03 07:02:13;;;;;;;;;;;-0.50;99.90;;;;;;5014589;28;20291;-77
2021/12/03 07:04:40;;;;;;;;;;;-0.40;99.90;;;;;;5016216;28;19936;-77
2021/12/03 07:07:05;;;;;;;;;;;-0.40;99.90;;;;;;5024371;28;19927;-77
2021/12/03 07:09:31;;;;;;;;;;;-0.40;99.90;;;;;;5016410;28;19913;-76
2021/12/03 07:11:56;;;;;;;;;;;-0.40;99.90;;;;;;5012979;28;19983;-76
2021/12/03 07:14:22;;;;;;;;;;;-0.30;99.90;;;;;;5011197;28;19987;-77
2021/12/03 07:16:48;;;;;;;;;;;-0.30;99.90;;;;;;5018504;28;19921;-77
2021/12/03 07:19:13;;;;;;;;;;;-0.30;99.90;;;;;;5016721;28;20019;-77
2021/12/03 07:21:40;;;;;;;;;;;-0.30;99.90;;;;;;5013281;28;19955;-75
2021/12/03 07:24:06;;;;;;;;;;;-0.20;99.90;;;;;;5011317;28;20392;-77
2021/12/03 07:26:32;;;;;;;;;;;-0.20;99.90;;;;;;5014177;28;19920;-77
2021/12/03 07:28:57;;;;;;;;;;;-0.20;99.90;;;;;;5025467;28;19924;-76
2021/12/03 07:31:23;;;;;;;;;;;-0.20;99.90;;;;;;5010833;28;19909;-77
2021/12/03 07:33:49;;;;;;;;;;;-0.20;99.90;;;;;;5012003;28;20383;-77
2021/12/03 07:36:15;;;;;;;;;;;-0.20;99.90;;;;;;5019115;28;19910;-77
2021/12/03 07:38:41;;;;;;;;;;;-0.10;99.90;;;;;;5027626;28;19920;-77
2021/12/03 07:41:06;;;;;;;;;;;-0.10;99.90;;;;;;5030827;28;20279;-77
2021/12/03 07:43:32;;;;;;;;;;;-0.20;99.90;;;;;;5014352;28;20275;-77
2021/12/03 07:45:57;;;;;;;;;;;-0.20;99.90;;;;;;5013367;28;19917;-78
2021/12/03 07:48:23;;;;;;;;;;;-0.10;99.90;;;;;;5015845;28;19917;-77
2021/12/03 07:50:49;;;;;;;;;;;-0.10;99.90;;;;;;5018917;28;19910;-78
2021/12/03 07:53:18;;;;;;;;;;;-0.10;99.90;;;;;;5011167;28;19920;-83
2021/12/03 07:55:44;;;;;;;;;;;0.00;99.90;;;;;;5022652;28;19920;-78
2021/12/03 07:58:10;;;;;;;;;;;0.00;99.90;;;;;;4992478;28;20382;-78
2021/12/03 08:00:36;;;;;;;;;;;0.10;99.90;;;;;;5028597;28;19909;-75
2021/12/03 08:03:02;;;;;;;;;;;0.10;99.90;;;;;;5030976;28;19992;-76
2021/12/03 08:05:28;;;;;;;;;;;0.10;99.90;;;;;;5000724;28;20016;-77
2021/12/03 08:07:54;;;;;;;;;;;0.10;99.90;;;;;;5000215;28;19916;-76
2021/12/03 08:10:19;;;;;;;;;;;0.10;99.90;;;;;;5029300;28;20779;-77
2021/12/03 08:12:45;;;;;;;;;;;0.20;99.90;;;;;;5012741;28;20383;-77
2021/12/03 08:15:11;;;;;;;;;;;0.10;99.90;;;;;;5012374;28;20287;-76
2021/12/03 08:17:37;;;;;;;;;;;0.20;99.90;;;;;;5016807;28;19921;-77
2021/12/03 08:20:04;;;;;;;;;;;0.20;99.90;;;;;;5007047;28;19920;-76
2021/12/03 08:22:30;;;;;;;;;;;0.20;99.90;;;;;;5010113;28;19915;-76
2021/12/03 08:24:55;;;;;;;;;;;0.30;99.90;;;;;;5008588;28;19917;-77
2021/12/03 08:27:21;;;;;;;;;;;0.30;99.90;;;;;;5031318;28;19913;-76
2021/12/03 08:29:47;;;;;;;;;;;0.40;99.90;;;;;;5001458;28;19916;-77
2021/12/03 08:32:12;;;;;;;;;;;0.40;99.90;;;;;;5026087;28;20421;-78
2021/12/03 08:34:38;;;;;;;;;;;0.30;99.90;;;;;;5017732;28;19918;-78
2021/12/03 08:37:06;;;;;;;;;;;0.40;99.90;;;;;;5019386;28;19990;-77
2021/12/03 08:39:32;;;;;;;;;;;0.40;99.90;;;;;;5017273;28;20121;-75
2021/12/03 08:41:57;;;;;;;;;;;0.40;99.90;;;;;;5022885;28;19932;-78
2021/12/03 08:44:23;;;;;;;;;;;0.40;99.90;;;;;;5019615;28;19956;-77
2021/12/03 08:46:58;;;;;;;;;;;0.40;99.90;;;;;;5032590;28;20059;-77
2021/12/03 08:49:32;;;;;;;;;;;0.40;99.90;;;;;;5026490;28;19917;-76
2021/12/03 08:57:16;;;;;;;;;;;0.30;99.90;;;;;;5017331;28;19913;-77
2021/12/03 08:59:41;;;;;;;;;;;0.30;99.90;;;;;;5015889;28;19980;-77
2021/12/03 09:02:07;;;;;;;;;;;0.20;99.90;;;;;;5016220;28;20393;-78
2021/12/03 09:04:33;;;;;;;;;;;0.20;99.90;;;;;;5016001;28;19952;-76
2021/12/03 09:07:00;;;;;;;;;;;0.20;99.90;;;;;;5026683;28;19973;-76
2021/12/03 09:09:25;;;;;;;;;;;0.20;99.90;;;;;;5019462;28;19914;-77
2021/12/03 09:11:52;;;;;;;;;;;0.20;99.90;;;;;;5013147;28;19921;-78
2021/12/03 09:14:26;;;;;;;;;;;0.20;99.90;;;;;;5014603;28;20004;-77
2021/12/03 09:20:09;;;;;;;;;;;0.30;99.90;;;;;;4996705;28;19920;-78
2021/12/03 09:22:42;;;;;;;;;;;0.30;99.90;;;;;;5018698;28;20421;-77
2021/12/03 09:25:09;;;;;;;;;;;0.30;99.90;;;;;;5015722;28;19909;-77
2021/12/03 09:27:35;;;;;;;;;;;0.40;99.90;;;;;;5006492;28;20016;-78
2021/12/03 09:30:03;;;;;;;;;;;0.40;99.90;;;;;;5024709;28;19967;-75
2021/12/03 09:32:31;;;;;;;;;;;0.40;99.90;;;;;;5010489;28;20008;-78
2021/12/03 09:34:58;;;;;;;;;;;0.40;99.90;;;;;;5025340;28;19952;-79
2021/12/03 09:37:23;;;;;;;;;;;0.40;99.90;;;;;;4992951;28;19918;-77
2021/12/03 09:39:49;;;;;;;;;;;0.50;99.90;;;;;;5009357;28;19913;-78
2021/12/03 09:42:18;;;;;;;;;;;0.50;99.90;;;;;;5010232;28;19909;-79
2021/12/03 09:44:45;;;;;;;;;;;0.50;99.90;;;;;;5010871;28;19936;-78
2021/12/03 09:47:12;;;;;;;;;;;0.50;99.90;;;;;;5018653;28;19963;-78
2021/12/03 09:49:39;;;;;;;;;;;0.50;99.90;;;;;;5027390;28;19932;-78
2021/12/03 09:54:46;;;;;;;;;;;0.50;99.90;;;;;;5023030;28;20739;-78
2021/12/03 09:57:18;;;;;;;;;;;0.50;99.90;;;;;;5024983;28;20290;-78
2021/12/03 10:02:55;;;;;;;;;;;0.50;99.90;;;;;;5007702;28;19910;-77
2021/12/03 10:18:49;;;;;;;;;;;0.50;99.90;;;;;;5019348;28;19939;-77
2021/12/03 10:24:54;;;;;;;;;;;0.50;99.90;;;;;;5016695;28;19913;-77
2021/12/03 10:38:43;;;;;;;;;;;0.70;99.90;;;;;;5008671;28;19909;-78
2021/12/03 10:44:14;;;;;;;;;;;0.70;99.90;;;;;;5017156;28;19909;-77
2021/12/03 10:49:28;;;;;;;;;;;0.70;99.90;;;;;;5017059;28;19917;-77
2021/12/03 10:52:22;;;;;;;;;;;0.70;99.90;;;;;;5008971;28;19913;-77
2021/12/03 10:55:17;;;;;;;;;;;0.80;99.90;;;;;;5011552;28;19916;-77
2021/12/03 10:58:39;;;;;;;;;;;0.70;99.90;;;;;;5009971;28;19917;-77
2021/12/03 11:01:10;;;;;;;;;;;0.70;99.90;;;;;;5000498;28;19959;-77
2021/12/03 11:18:19;;;;;;;;;;;0.90;99.90;;;;;;5010805;28;20015;-78
2021/12/03 11:39:26;;;;;;;;;;;0.90;99.90;;;;;;5014467;28;19905;-77
2021/12/03 12:36:00;;;;;;;;;;;0.80;99.90;;;;;;5033102;28;20452;-77
2021/12/03 13:57:31;;;;;;;;;;;0.50;99.90;;;;;;5009418;28;19979;-78
2021/12/03 14:08:27;;;;;;;;;;;0.40;99.90;;;;;;5009711;28;20355;-77
2021/12/03 14:36:03;;;;;;;;;;;0.30;99.90;;;;;;5010862;28;20372;-77
2021/12/03 14:42:44;;;;;;;;;;;0.20;99.90;;;;;;5004703;28;20387;-78
2021/12/03 14:45:24;;;;;;;;;;;0.20;99.90;;;;;;5010785;28;19920;-78
2021/12/03 14:48:08;;;;;;;;;;;0.20;99.90;;;;;;5030422;28;19984;-77
2021/12/03 14:53:53;;;;;;;;;;;0.20;99.90;;;;;;5002581;28;19956;-78
2021/12/03 14:56:23;;;;;;;;;;;0.20;99.90;;;;;;5013659;28;19940;-78
2021/12/03 14:59:11;;;;;;;;;;;0.20;99.90;;;;;;5008072;28;19992;-78
2021/12/03 15:01:57;;;;;;;;;;;0.10;99.90;;;;;;5008421;28;19920;-79
2021/12/03 15:09:41;;;;;;;;;;;0.10;99.90;;;;;;5006012;28;19917;-77
2021/12/03 15:12:38;;;;;;;;;;;0.20;99.90;;;;;;5005921;28;19920;-79
2021/12/03 15:25:28;;;;;;;;;;;0.10;99.90;;;;;;5008275;28;19959;-77
2021/12/03 15:33:39;;;;;;;;;;;0.20;99.90;;;;;;5003932;28;19914;-77
2021/12/03 15:36:14;;;;;;;;;;;0.20;99.90;;;;;;5007482;28;19925;-77
2021/12/03 16:08:17;;;;;;;;;;;0.20;99.90;;;;;;5015536;28;19952;-75
2021/12/03 16:11:11;;;;;;;;;;;0.20;99.90;;;;;;5024763;28;20311;-77
2021/12/03 16:13:47;;;;;;;;;;;0.20;99.90;;;;;;5016733;28;20342;-75
2021/12/03 16:19:08;;;;;;;;;;;0.10;99.90;;;;;;5032916;28;19919;-77
2021/12/03 16:27:07;;;;;;;;;;;0.20;99.90;;;;;;5021961;28;19913;-76
2021/12/03 16:54:06;;;;;;;;;;;0.40;99.90;;;;;;5010973;28;20352;-74
2021/12/03 16:56:32;;;;;;;;;;;0.30;99.90;;;;;;5032180;28;19963;-78
2021/12/03 16:58:59;;;;;;;;;;;0.40;99.90;;;;;;5028887;28;19985;-77
2021/12/03 17:01:39;;;;;;;;;;;0.40;99.90;;;;;;5012070;28;19913;-75
2021/12/03 17:49:37;;;;;;;;;;;0.00;99.90;;;;;;5019578;28;19913;-77
2021/12/03 18:00:09;;;;;;;;;;;-0.20;99.90;;;;;;5013621;28;19913;-77
2021/12/03 18:02:46;;;;;;;;;;;-0.20;99.90;;;;;;5016474;28;20351;-77
2021/12/03 18:56:29;;;;;;;;;;;-0.60;99.90;;;;;;5004410;28;20487;-78
2021/12/03 18:58:58;;;;;;;;;;;-0.70;99.90;;;;;;5012288;28;20004;-78
2021/12/03 19:01:27;;;;;;;;;;;-0.70;99.90;;;;;;5011672;28;19929;-77
2021/12/03 19:04:04;;;;;;;;;;;-0.70;99.90;;;;;;5007354;28;19921;-77
2021/12/03 19:06:41;;;;;;;;;;;-0.70;99.90;;;;;;5008665;28;19913;-77
2021/12/03 19:09:12;;;;;;;;;;;-0.70;99.90;;;;;;5012134;28;20016;-77
2021/12/03 19:12:03;;;;;;;;;;;-0.80;99.90;;;;;;5021753;28;20367;-77
2021/12/03 19:14:25;;;;;;;;;;;-0.80;99.90;;;;;;5010782;28;19913;-77
2021/12/03 19:16:51;;;;;;;;;;;-0.90;99.90;;;;;;5002421;28;19920;-78
2021/12/03 19:19:17;;;;;;;;;;;-0.90;99.90;;;;;;5007548;28;19910;-78
2021/12/03 19:21:44;;;;;;;;;;;-0.90;99.90;;;;;;5025089;28;19971;-78
2021/12/03 19:24:11;;;;;;;;;;;-0.90;99.90;;;;;;5012098;28;19909;-78
2021/12/03 19:26:43;;;;;;;;;;;-1.00;99.90;;;;;;5010817;28;19915;-77
2021/12/03 19:29:11;;;;;;;;;;;-0.90;99.90;;;;;;5030577;28;19909;-77
2021/12/03 19:31:37;;;;;;;;;;;-0.90;99.90;;;;;;5010885;28;19920;-77
2021/12/03 19:34:03;;;;;;;;;;;-0.80;99.90;;;;;;5021325;28;19932;-77
2021/12/03 19:36:30;;;;;;;;;;;-0.80;99.90;;;;;;5011946;28;19917;-78
2021/12/03 19:38:56;;;;;;;;;;;-0.80;99.90;;;;;;5014519;28;19910;-78
2021/12/03 19:42:11;;;;;;;;;;;-0.90;99.90;;;;;;5013774;28;19909;-77
2021/12/03 19:44:12;;;;;;;;;;;-0.90;99.90;;;;;;5005825;28;19913;-78
2021/12/03 19:46:41;;;;;;;;;;;-1.00;99.90;;;;;;5014455;28;20038;-78
2021/12/03 19:49:18;;;;;;;;;;;-0.90;99.90;;;;;;5018530;28;19914;-77
2021/12/03 19:51:54;;;;;;;;;;;-1.00;99.90;;;;;;5020560;28;19909;-77
2021/12/03 19:54:20;;;;;;;;;;;-1.00;99.90;;;;;;5017790;28;19952;-78
2021/12/03 19:56:46;;;;;;;;;;;-0.90;99.90;;;;;;5024577;28;19948;-78
2021/12/03 19:59:12;;;;;;;;;;;-1.00;99.90;;;;;;5014509;28;20541;-78
2021/12/03 20:01:38;;;;;;;;;;;-1.00;99.90;;;;;;5016817;28;19996;-78
2021/12/03 20:04:04;;;;;;;;;;;-1.00;99.90;;;;;;5016302;28;19924;-78
2021/12/03 20:06:30;;;;;;;;;;;-1.00;99.90;;;;;;5021999;28;19967;-76
2021/12/03 20:09:02;;;;;;;;;;;-1.10;99.90;;;;;;5033116;28;20375;-78
2021/12/03 20:11:37;;;;;;;;;;;-1.10;99.90;;;;;;5033152;28;20000;-78
2021/12/03 20:14:03;;;;;;;;;;;-1.20;99.90;;;;;;5036737;28;19932;-76
2021/12/03 20:16:34;;;;;;;;;;;-1.20;99.90;;;;;;5016359;28;19929;-78
2021/12/03 20:21:49;;;;;;;;;;;-1.30;99.90;;;;;;5010053;28;19920;-76
2021/12/03 20:27:06;;;;;;;;;;;-1.30;99.90;;;;;;5012453;28;19917;-77
2021/12/03 20:32:15;;;;;;;;;;;-1.30;99.90;;;;;;5015249;28;19940;-78
2021/12/03 20:37:25;;;;;;;;;;;-1.30;99.90;;;;;;5015613;28;19952;-78
2021/12/03 20:39:53;;;;;;;;;;;-1.40;99.90;;;;;;5011849;28;20386;-78
2021/12/03 20:42:27;;;;;;;;;;;-1.40;99.90;;;;;;5016624;28;19936;-77
2021/12/03 20:50:01;;;;;;;;;;;-1.40;99.90;;;;;;5030053;28;20493;-78
2021/12/03 20:52:41;;;;;;;;;;;-1.40;99.90;;;;;;5007275;28;19921;-77
2021/12/03 20:58:04;;;;;;;;;;;-1.40;99.90;;;;;;5031260;28;19995;-78
2021/12/03 21:08:57;;;;;;;;;;;-1.40;99.90;;;;;;5006073;28;19913;-78
2021/12/03 21:11:33;;;;;;;;;;;-1.40;99.90;;;;;;5009870;28;20423;-77
2021/12/03 21:14:02;;;;;;;;;;;-1.40;99.90;;;;;;5011285;28;19920;-78
2021/12/03 21:21:44;;;;;;;;;;;-1.30;99.90;;;;;;5014880;28;19914;-77
2021/12/03 21:24:10;;;;;;;;;;;-1.20;99.90;;;;;;5011205;28;19913;-78
2021/12/03 21:26:41;;;;;;;;;;;-1.10;99.90;;;;;;5014445;28;19909;-78
2021/12/03 21:40:14;;;;;;;;;;;-1.10;99.90;;;;;;5012048;28;19917;-77
2021/12/03 21:42:40;;;;;;;;;;;-1.10;99.90;;;;;;5010795;28;19953;-77
2021/12/03 21:45:06;;;;;;;;;;;-1.20;99.90;;;;;;5027306;28;20394;-77
2021/12/03 21:47:32;;;;;;;;;;;-1.30;99.90;;;;;;5001985;28;20433;-77
2021/12/03 21:49:57;;;;;;;;;;;-1.30;99.90;;;;;;5014904;28;19909;-77
2021/12/03 21:52:24;;;;;;;;;;;-1.40;99.90;;;;;;5016257;28;19913;-77
2021/12/03 21:54:51;;;;;;;;;;;-1.30;99.90;;;;;;5017988;28;19905;-77
2021/12/03 21:57:17;;;;;;;;;;;-1.20;99.90;;;;;;5023522;28;20291;-78
2021/12/03 21:59:42;;;;;;;;;;;-1.10;99.90;;;;;;5031736;28;19915;-77
2021/12/03 22:02:09;;;;;;;;;;;-1.00;99.90;;;;;;5010069;28;19919;-76
2021/12/03 22:04:34;;;;;;;;;;;-0.90;99.90;;;;;;5012340;28;20510;-76
2021/12/03 22:07:05;;;;;;;;;;;-0.90;99.90;;;;;;5011751;28;19913;-76
2021/12/03 22:09:31;;;;;;;;;;;-0.90;99.90;;;;;;5017228;28;19964;-77
2021/12/03 22:11:56;;;;;;;;;;;-0.90;99.90;;;;;;5010700;28;19917;-76
2021/12/03 22:14:22;;;;;;;;;;;-0.90;99.90;;;;;;5014022;28;19920;-76
2021/12/03 22:16:48;;;;;;;;;;;-0.90;99.90;;;;;;5009796;28;19921;-76
2021/12/03 22:19:14;;;;;;;;;;;-0.90;99.90;;;;;;5010098;28;19911;-77
2021/12/03 22:21:39;;;;;;;;;;;-0.90;99.90;;;;;;5008865;28;19909;-76
2021/12/03 22:24:05;;;;;;;;;;;-0.90;99.90;;;;;;5011367;28;19908;-77
2021/12/03 22:26:31;;;;;;;;;;;-0.90;99.90;;;;;;5021553;28;19957;-77
2021/12/03 22:28:56;;;;;;;;;;;-1.00;99.90;;;;;;5020298;28;20397;-77
2021/12/03 22:31:22;;;;;;;;;;;-1.00;99.90;;;;;;5010286;28;19909;-76
2021/12/03 22:33:49;;;;;;;;;;;-1.00;99.90;;;;;;5012767;28;20326;-77